createdAt,value
2022-09-15T00:01:56.001Z,6.40
2022-09-15T00:04:25.806Z,7.15
2022-09-15T00:06:55.715Z,8.55
2022-09-15T00:09:28.106Z,5.45
2022-09-15T00:11:57.866Z,6.65
2022-09-15T00:14:27.619Z,4.75
2022-09-15T00:16:57.390Z,6.82
2022-09-15T00:19:27.149Z,3.92
2022-09-15T00:21:56.862Z,4.18
2022-09-15T00:24:29.241Z,5.32
2022-09-15T00:26:59.351Z,5.85
2022-09-15T00:29:29.068Z,3.15
2022-09-15T00:31:58.775Z,3.03
2022-09-15T00:34:28.536Z,4.50
2022-09-15T00:36:58.265Z,5.55
2022-09-15T00:39:31.263Z,4.18
2022-09-15T00:42:01.193Z,3.60
2022-09-15T00:44:50.604Z,4.25
2022-09-15T00:47:22.527Z,7.38
2022-09-15T00:49:59.234Z,4.93
2022-09-15T00:52:34.122Z,5.45
2022-09-15T00:55:10.315Z,2.75
2022-09-15T00:57:42.875Z,4.05
2022-09-15T01:00:16.535Z,7.57
2022-09-15T01:02:48.271Z,4.35
2022-09-15T01:05:20.336Z,3.08
2022-09-15T01:07:56.138Z,4.13
2022-09-15T01:10:31.316Z,5.18
2022-09-15T01:13:03.032Z,5.70
2022-09-15T01:15:41.222Z,6.47
2022-09-15T01:18:17.602Z,4.25
2022-09-15T01:21:18.083Z,5.40
2022-09-15T01:24:29.967Z,5.43
2022-09-15T01:27:37.678Z,6.90
2022-09-15T01:30:09.472Z,4.45
2022-09-15T01:33:02.658Z,4.50
2022-09-15T01:35:45.326Z,3.72
2022-09-15T01:38:20.513Z,4.50
2022-09-15T01:40:54.728Z,3.65
2022-09-15T01:43:26.599Z,4.13
2022-09-15T01:46:00.309Z,3.53
2022-09-15T01:48:32.458Z,3.20
2022-09-15T01:51:04.979Z,6.05
2022-09-15T01:53:36.303Z,4.95
2022-09-15T01:56:09.431Z,3.95
2022-09-15T01:58:41.211Z,4.20
2022-09-15T02:01:20.026Z,5.03
2022-09-15T02:03:55.601Z,3.75
2022-09-15T02:06:36.651Z,3.15
2022-09-15T02:09:12.706Z,2.13
2022-09-15T02:11:53.008Z,2.70
2022-09-15T02:14:28.352Z,5.10
2022-09-15T02:17:02.920Z,4.50
2022-09-15T02:19:36.131Z,3.03
2022-09-15T02:22:12.181Z,5.53
2022-09-15T02:24:46.787Z,5.32
2022-09-15T02:27:22.372Z,3.15
2022-09-15T02:29:54.730Z,4.32
2022-09-15T02:32:29.437Z,5.65
2022-09-15T02:35:07.671Z,3.38
2022-09-15T02:37:39.212Z,3.72
2022-09-15T02:40:10.497Z,3.17
2022-09-15T02:42:40.901Z,2.33
2022-09-15T02:45:12.164Z,3.70
2022-09-15T02:47:45.351Z,3.72
2022-09-15T02:50:15.098Z,4.30
2022-09-15T02:52:44.857Z,5.45
2022-09-15T02:55:15.866Z,3.85
2022-09-15T02:57:45.595Z,3.88
2022-09-15T03:00:19.059Z,3.25
2022-09-15T03:02:53.516Z,3.33
2022-09-15T03:05:26.195Z,7.55
2022-09-15T03:07:56.518Z,3.75
2022-09-15T03:10:28.193Z,2.88
2022-09-15T03:12:58.992Z,4.22
2022-09-15T03:15:29.543Z,3.63
2022-09-15T03:18:01.986Z,5.57
2022-09-15T03:20:32.047Z,5.60
2022-09-15T03:23:03.343Z,3.10
2022-09-15T03:25:33.115Z,2.20
2022-09-15T03:28:02.820Z,8.27
2022-09-15T03:30:32.541Z,5.88
2022-09-15T03:33:05.184Z,2.85
2022-09-15T03:35:34.921Z,2.78
2022-09-15T03:38:04.643Z,3.60
2022-09-15T03:40:34.511Z,4.15
2022-09-15T03:43:04.295Z,2.92
2022-09-15T03:45:34.075Z,5.15
2022-09-15T03:48:07.173Z,3.20
2022-09-15T03:50:37.376Z,5.20
2022-09-15T03:53:07.114Z,3.22
2022-09-15T03:55:36.925Z,2.78
2022-09-15T03:58:06.680Z,2.78
2022-09-15T04:00:36.921Z,5.25
2022-09-15T04:03:09.553Z,3.05
2022-09-15T04:05:39.458Z,2.13
2022-09-15T04:08:09.186Z,2.83
2022-09-15T04:10:41.450Z,4.18
2022-09-15T04:13:11.322Z,1.52
2022-09-15T04:15:41.113Z,3.15
2022-09-15T04:18:13.469Z,1.88
2022-09-15T04:20:43.191Z,2.58
2022-09-15T04:23:12.918Z,1.92
2022-09-15T04:25:42.681Z,3.63
2022-09-15T04:28:12.401Z,1.67
2022-09-15T04:30:42.127Z,2.15
2022-09-15T04:33:14.416Z,3.05
2022-09-15T04:35:44.157Z,5.03
2022-09-15T04:38:13.893Z,2.75
2022-09-15T04:40:43.594Z,5.63
2022-09-15T04:43:13.293Z,3.53
2022-09-15T04:45:43.247Z,1.30
2022-09-15T04:48:15.695Z,3.22
2022-09-15T04:50:45.554Z,3.38
2022-09-15T04:53:15.338Z,2.45
2022-09-15T04:55:45.113Z,2.22
2022-09-15T04:58:14.961Z,2.88
2022-09-15T05:00:45.849Z,2.97
2022-09-15T05:03:18.342Z,3.33
2022-09-15T05:05:50.105Z,3.00
2022-09-15T05:08:19.835Z,4.93
2022-09-15T05:10:49.770Z,3.55
2022-09-15T05:13:19.481Z,2.55
2022-09-15T05:15:49.279Z,5.55
2022-09-15T05:18:21.631Z,5.43
2022-09-15T05:20:51.336Z,2.20
2022-09-15T05:23:21.053Z,3.83
2022-09-15T05:25:58.098Z,2.20
2022-09-15T05:28:28.286Z,2.70
2022-09-15T05:30:59.007Z,5.50
2022-09-15T05:33:31.342Z,2.38
2022-09-15T05:36:02.306Z,1.52
2022-09-15T05:38:33.751Z,2.38
2022-09-15T05:41:07.430Z,4.57
2022-09-15T05:43:38.176Z,3.63
2022-09-15T05:46:09.017Z,7.78
2022-09-15T05:48:41.735Z,4.63
2022-09-15T05:51:11.685Z,20.17
2022-09-15T05:53:42.297Z,6.80
2022-09-15T05:56:14.639Z,4.97
2022-09-15T05:58:46.636Z,3.30
2022-09-15T06:01:18.312Z,3.20
2022-09-15T06:03:51.264Z,4.10
2022-09-15T06:06:21.823Z,3.22
2022-09-15T06:08:58.651Z,4.68
2022-09-15T06:11:30.966Z,5.30
2022-09-15T06:14:03.062Z,5.60
2022-09-15T06:16:35.833Z,3.38
2022-09-15T06:19:08.702Z,6.20
2022-09-15T06:21:38.468Z,4.68
2022-09-15T06:24:09.414Z,5.30
2022-09-15T06:26:39.112Z,4.15
2022-09-15T06:29:09.329Z,5.22
2022-09-15T06:31:39.275Z,6.43
2022-09-15T06:34:11.782Z,8.35
2022-09-15T06:36:41.576Z,7.28
2022-09-15T06:39:11.567Z,13.95
2022-09-15T06:42:01.912Z,5.57
2022-09-15T06:44:31.034Z,5.25
2022-09-15T06:47:00.796Z,8.45
2022-09-15T06:49:33.396Z,7.68
2022-09-15T06:52:05.149Z,5.47
2022-09-15T06:54:34.929Z,5.78
2022-09-15T06:57:04.651Z,4.05
2022-09-15T06:59:34.357Z,6.75
2022-09-15T07:02:05.231Z,4.97
2022-09-15T07:04:39.647Z,9.77
2022-09-15T07:07:09.386Z,4.95
2022-09-15T07:09:41.267Z,4.55
2022-09-15T07:12:11.276Z,5.30
2022-09-15T07:14:41.016Z,4.45
2022-09-15T07:17:10.761Z,3.97
2022-09-15T07:19:43.204Z,4.45
2022-09-15T07:22:13.761Z,3.55
2022-09-15T07:24:43.453Z,4.38
2022-09-15T07:27:13.159Z,4.28
2022-09-15T07:29:42.879Z,3.28
2022-09-15T07:32:12.569Z,4.50
2022-09-15T07:34:44.844Z,4.50
2022-09-15T07:37:14.552Z,4.22
2022-09-15T07:39:44.354Z,4.78
2022-09-15T07:42:15.459Z,4.50
2022-09-15T07:44:45.356Z,3.25
2022-09-15T07:47:15.106Z,3.60
2022-09-15T07:49:47.407Z,2.33
2022-09-15T07:52:17.118Z,2.58
2022-09-15T07:54:46.848Z,1.77
2022-09-15T07:57:16.569Z,2.20
2022-09-15T07:59:46.390Z,2.65
2022-09-15T08:02:19.844Z,3.63
2022-09-15T08:04:53.087Z,2.65
2022-09-15T08:07:22.799Z,3.35
2022-09-15T08:09:52.889Z,4.22
2022-09-15T08:12:22.608Z,6.13
2022-09-15T08:14:52.383Z,6.38
2022-09-15T08:17:22.121Z,2.55
2022-09-15T08:19:54.472Z,3.63
2022-09-15T08:22:24.252Z,3.03
2022-09-15T08:24:54.009Z,2.03
2022-09-15T08:27:23.722Z,3.17
2022-09-15T08:29:53.541Z,2.20
2022-09-15T08:32:23.353Z,2.08
2022-09-15T08:34:55.753Z,2.45
2022-09-15T08:37:25.549Z,5.88
2022-09-15T08:42:42.880Z,1.67
2022-09-15T08:45:23.251Z,1.92
2022-09-15T08:47:58.578Z,2.72
2022-09-15T08:50:33.806Z,3.90
2022-09-15T08:53:09.724Z,2.65
2022-09-15T08:55:45.863Z,6.22
2022-09-15T08:58:19.195Z,2.72
2022-09-15T09:00:52.105Z,4.70
2022-09-15T09:03:49.309Z,1.50
2022-09-15T09:06:29.749Z,2.20
2022-09-15T09:09:21.155Z,2.65
2022-09-15T09:12:05.441Z,2.03
2022-09-15T09:14:45.497Z,1.45
2022-09-15T09:17:41.114Z,0.60
2022-09-15T09:20:32.381Z,1.20
2022-09-15T09:23:11.276Z,0.50
2022-09-15T09:25:41.086Z,0.45
2022-09-15T09:28:23.738Z,0.32
2022-09-15T09:30:53.502Z,2.78
2022-09-15T09:33:30.399Z,2.67
2022-09-15T09:36:03.443Z,1.38
2022-09-15T09:38:40.399Z,0.57
2022-09-15T09:41:15.747Z,3.70
2022-09-15T09:43:46.680Z,2.88
2022-09-15T09:46:18.115Z,7.00
2022-09-15T09:48:51.454Z,3.92
2022-09-15T09:51:51.808Z,2.63
2022-09-15T09:54:27.267Z,2.05
2022-09-15T09:56:59.184Z,4.20
2022-09-15T09:59:38.094Z,5.25
2022-09-15T10:02:21.876Z,4.25
2022-09-15T10:04:53.485Z,8.43
2022-09-15T10:07:27.536Z,8.82
2022-09-15T10:10:02.396Z,6.45
2022-09-15T10:12:35.444Z,5.45
2022-09-15T10:15:08.351Z,5.20
2022-09-15T10:17:44.591Z,5.90
2022-09-15T10:20:28.317Z,7.75
2022-09-15T10:23:06.777Z,4.93
2022-09-15T10:25:57.907Z,6.47
2022-09-15T10:28:30.165Z,7.07
2022-09-15T10:31:10.685Z,7.50
2022-09-15T10:33:42.613Z,9.75
2022-09-15T10:36:17.514Z,9.82
2022-09-15T10:38:49.406Z,10.85
2022-09-15T10:41:30.654Z,10.77
2022-09-15T10:44:21.228Z,10.60
2022-09-15T10:47:00.281Z,9.43
2022-09-15T10:49:49.845Z,7.93
2022-09-15T10:52:29.325Z,8.93
2022-09-15T10:55:42.209Z,7.80
2022-09-15T10:58:46.918Z,10.18
2022-09-15T11:01:33.340Z,11.63
2022-09-15T11:04:25.025Z,11.38
2022-09-15T11:07:01.878Z,9.15
2022-09-15T11:09:36.368Z,9.00
2022-09-15T11:12:25.869Z,12.27
2022-09-15T11:15:19.010Z,8.73
2022-09-15T11:18:04.647Z,9.07
2022-09-15T11:21:04.912Z,10.50
2022-09-15T11:23:37.298Z,10.95
2022-09-15T11:26:10.514Z,9.48
2022-09-15T11:28:44.440Z,8.30
2022-09-15T11:31:22.137Z,13.57
2022-09-15T11:33:58.873Z,8.45
2022-09-15T11:36:36.310Z,11.15
2022-09-15T11:39:13.262Z,10.75
2022-09-15T11:41:49.702Z,10.60
2022-09-15T11:44:25.369Z,7.72
2022-09-15T11:47:17.007Z,11.32
2022-09-15T11:49:51.426Z,7.63
2022-09-15T11:55:03.553Z,7.90
2022-09-15T11:57:39.179Z,10.90
2022-09-15T12:00:14.749Z,8.88
2022-09-15T12:02:54.037Z,8.85
2022-09-15T12:05:29.269Z,12.25
2022-09-15T12:08:03.901Z,11.90
2022-09-15T12:10:39.369Z,8.80
2022-09-15T12:13:10.505Z,11.68
2022-09-15T12:15:40.937Z,11.23
2022-09-15T12:18:37.841Z,9.95
2022-09-15T12:21:15.436Z,7.78
2022-09-15T12:23:49.589Z,8.88
2022-09-15T12:26:21.445Z,8.40
2022-09-15T12:29:02.418Z,6.43
2022-09-15T12:31:37.280Z,7.10
2022-09-15T12:34:38.440Z,5.30
2022-09-15T12:37:15.228Z,6.97
2022-09-15T12:39:46.518Z,5.85
2022-09-15T12:42:21.402Z,8.60
2022-09-15T12:44:55.307Z,10.20
2022-09-15T12:47:32.113Z,9.73
2022-09-15T12:50:21.183Z,7.28
2022-09-15T12:52:53.544Z,9.43
2022-09-15T12:55:26.834Z,6.70
2022-09-15T12:58:00.144Z,7.75
2022-09-15T13:00:32.989Z,5.40
2022-09-15T13:03:03.132Z,5.65
2022-09-15T13:06:17.457Z,5.97
2022-09-15T13:09:18.105Z,6.97
2022-09-15T13:11:52.933Z,4.95
2022-09-15T13:14:30.538Z,5.60
2022-09-15T13:17:06.605Z,7.20
2022-09-15T13:19:44.353Z,6.72
2022-09-15T13:22:27.161Z,6.22
2022-09-15T13:25:01.651Z,6.00
2022-09-15T13:27:37.386Z,6.38
2022-09-15T13:30:22.066Z,6.05
2022-09-15T13:35:43.635Z,5.45
2022-09-15T13:38:52.768Z,5.43
2022-09-15T13:42:00.185Z,4.35
2022-09-15T13:45:11.863Z,4.10
2022-09-15T13:47:54.623Z,4.22
2022-09-15T13:50:28.943Z,4.50
2022-09-15T13:53:09.805Z,5.80
2022-09-15T13:55:46.525Z,8.60
2022-09-15T14:01:11.601Z,4.60
2022-09-15T14:03:46.583Z,6.35
2022-09-15T14:06:19.545Z,4.05
2022-09-15T14:08:54.040Z,3.20
2022-09-15T14:11:31.418Z,6.38
2022-09-15T14:14:03.339Z,10.18
2022-09-15T14:16:36.509Z,5.47
2022-09-15T14:19:27.395Z,4.60
2022-09-15T14:21:58.774Z,4.60
2022-09-15T14:24:31.581Z,7.82
2022-09-15T14:27:12.977Z,4.90
2022-09-15T14:29:44.335Z,9.13
2022-09-15T14:32:18.231Z,5.10
2022-09-15T14:37:38.279Z,7.32
2022-09-15T14:40:21.930Z,5.10
2022-09-15T14:42:54.365Z,6.53
2022-09-15T14:48:18.480Z,6.20
2022-09-15T14:50:49.855Z,6.35
2022-09-15T14:53:24.889Z,6.25
2022-09-15T14:56:00.551Z,5.57
2022-09-15T14:58:40.102Z,4.93
2022-09-15T15:01:16.378Z,4.65
2022-09-15T15:03:51.583Z,10.45
2022-09-15T15:06:29.379Z,5.22
2022-09-15T15:09:03.387Z,4.93
2022-09-15T15:11:34.646Z,4.57
2022-09-15T15:14:11.402Z,7.88
2022-09-15T15:16:53.500Z,6.82
2022-09-15T15:19:37.749Z,5.70
2022-09-15T15:22:18.557Z,6.75
2022-09-15T15:24:51.143Z,5.35
2022-09-15T15:27:43.612Z,7.93
2022-09-15T15:30:34.599Z,10.32
2022-09-15T15:33:06.345Z,6.93
2022-09-15T15:35:37.704Z,6.03
2022-09-15T15:38:10.386Z,7.03
2022-09-15T15:40:42.357Z,7.32
2022-09-15T15:43:23.883Z,6.45
2022-09-15T15:45:58.678Z,5.95
2022-09-15T15:48:31.744Z,4.63
2022-09-15T15:51:07.448Z,6.75
2022-09-15T15:53:37.545Z,7.22
2022-09-15T15:56:08.945Z,7.88
2022-09-15T15:58:38.849Z,6.07
2022-09-15T16:01:14.564Z,7.03
2022-09-15T16:03:44.383Z,8.32
2022-09-15T16:06:15.924Z,9.63
2022-09-15T16:08:48.081Z,10.80
2022-09-15T16:11:19.759Z,7.05
2022-09-15T16:13:49.801Z,5.53
2022-09-15T16:16:24.913Z,6.40
2022-09-15T16:18:54.972Z,7.30
2022-09-15T16:21:32.263Z,5.13
2022-09-15T16:24:02.006Z,7.18
2022-09-15T16:26:31.939Z,6.00
2022-09-15T16:29:01.681Z,7.75
2022-09-15T16:31:35.256Z,5.57
2022-09-15T16:34:05.127Z,6.90
2022-09-15T16:36:37.282Z,6.57
2022-09-15T16:39:07.151Z,6.13
2022-09-15T16:41:39.293Z,7.03
2022-09-15T16:44:19.084Z,6.90
2022-09-15T16:46:51.489Z,8.10
2022-09-15T16:49:21.298Z,6.80
2022-09-15T16:51:51.061Z,6.95
2022-09-15T16:54:22.728Z,6.50
2022-09-15T16:56:52.493Z,6.68
2022-09-15T16:59:22.360Z,6.82
2022-09-15T17:01:55.275Z,6.60
2022-09-15T17:04:25.072Z,11.00
2022-09-15T17:06:54.870Z,5.90
2022-09-15T17:09:24.646Z,7.30
2022-09-15T17:11:59.854Z,4.88
2022-09-15T17:14:29.644Z,5.45
2022-09-15T17:17:02.091Z,7.38
2022-09-15T17:19:31.810Z,5.20
2022-09-15T17:22:01.634Z,6.13
2022-09-15T17:24:31.341Z,5.90
2022-09-15T17:27:01.291Z,6.93
2022-09-15T17:29:31.113Z,6.47
2022-09-15T17:32:03.723Z,7.50
2022-09-15T17:34:33.523Z,7.65
2022-09-15T17:37:03.361Z,6.25
2022-09-15T17:39:34.129Z,5.72
2022-09-15T17:42:04.118Z,6.75
2022-09-15T17:44:37.037Z,10.23
2022-09-15T17:47:10.337Z,6.88
2022-09-15T17:49:40.110Z,9.20
2022-09-15T17:52:11.321Z,7.00
2022-09-15T17:54:41.396Z,8.13
2022-09-15T17:57:11.400Z,9.80
2022-09-15T17:59:41.117Z,5.82
2022-09-15T18:02:21.316Z,6.82
2022-09-15T18:04:51.059Z,7.72
2022-09-15T18:07:21.248Z,7.68
2022-09-15T18:09:51.200Z,9.15
2022-09-15T18:12:21.826Z,7.68
2022-09-15T18:14:51.608Z,6.63
2022-09-15T18:17:24.159Z,6.43
2022-09-15T18:19:54.280Z,6.45
2022-09-15T18:22:25.605Z,6.95
2022-09-15T18:24:55.887Z,6.00
2022-09-15T18:27:25.710Z,7.30
2022-09-15T18:29:56.018Z,10.27
2022-09-15T18:32:28.351Z,8.95
2022-09-15T18:34:58.060Z,8.23
2022-09-15T18:37:27.788Z,8.52
2022-09-15T18:39:57.661Z,9.98
2022-09-15T18:42:29.903Z,9.38
2022-09-15T18:45:01.704Z,8.68
2022-09-15T18:47:34.735Z,7.63
2022-09-15T18:50:06.660Z,9.70
2022-09-15T18:52:39.279Z,11.90
2022-09-15T18:55:11.403Z,8.73
2022-09-15T18:57:42.907Z,9.07
2022-09-15T19:00:15.609Z,11.38
2022-09-15T19:02:47.954Z,11.57
2022-09-15T19:05:18.836Z,12.75
2022-09-15T19:07:49.085Z,6.90
2022-09-15T19:10:18.868Z,7.18
2022-09-15T19:12:48.746Z,7.40
2022-09-15T19:15:23.660Z,9.82
2022-09-15T19:17:56.280Z,10.00
2022-09-15T19:20:26.018Z,11.10
2022-09-15T19:22:55.872Z,11.43
2022-09-15T19:25:25.645Z,9.40
2022-09-15T19:27:55.390Z,12.00
2022-09-15T19:30:25.186Z,9.32
2022-09-15T19:32:57.464Z,7.63
2022-09-15T19:35:27.185Z,8.07
2022-09-15T19:37:56.893Z,11.50
2022-09-15T19:40:26.847Z,7.78
2022-09-15T19:42:56.695Z,7.72
2022-09-15T19:45:26.437Z,9.77
2022-09-15T19:47:58.755Z,8.70
2022-09-15T19:50:28.511Z,8.75
2022-09-15T19:52:59.730Z,9.68
2022-09-15T19:55:29.742Z,10.65
2022-09-15T19:57:59.463Z,7.40
2022-09-15T20:00:29.225Z,10.05
2022-09-15T20:03:01.544Z,6.70
2022-09-15T20:05:31.312Z,10.00
2022-09-15T20:08:02.063Z,9.75
2022-09-15T20:10:31.784Z,7.30
2022-09-15T20:13:01.774Z,9.32
2022-09-15T20:15:31.552Z,9.93
2022-09-15T20:18:04.004Z,9.55
2022-09-15T20:20:33.837Z,8.98
2022-09-15T20:23:03.555Z,8.35
2022-09-15T20:25:33.323Z,8.48
2022-09-15T20:28:03.092Z,8.82
2022-09-15T20:30:32.828Z,7.65
2022-09-15T20:33:05.136Z,6.68
2022-09-15T20:35:35.774Z,10.35
2022-09-15T20:38:06.409Z,6.10
2022-09-15T20:40:36.426Z,7.32
2022-09-15T20:43:06.141Z,9.45
2022-09-15T20:45:37.293Z,9.35
2022-09-15T20:48:09.796Z,7.65
2022-09-15T20:50:39.654Z,9.07
2022-09-15T20:53:09.373Z,8.60
2022-09-15T20:55:39.100Z,10.10
2022-09-15T20:58:10.911Z,6.72
2022-09-15T21:00:40.806Z,10.68
2022-09-15T21:03:14.467Z,7.18
2022-09-15T21:05:44.268Z,8.25
2022-09-15T21:08:14.405Z,6.97
2022-09-15T21:10:49.341Z,8.57
2022-09-15T21:13:19.706Z,7.07
2022-09-15T21:15:57.143Z,7.40
2022-09-15T21:18:32.608Z,6.00
2022-09-15T21:21:04.958Z,8.90
2022-09-15T21:23:37.118Z,9.98
2022-09-15T21:26:09.502Z,5.70
2022-09-15T21:28:39.724Z,6.68
2022-09-15T21:31:11.267Z,7.35
2022-09-15T21:33:43.981Z,6.60
2022-09-15T21:36:17.363Z,8.13
2022-09-15T21:38:47.702Z,6.20
2022-09-15T21:41:18.821Z,7.55
2022-09-15T21:43:49.422Z,7.63
2022-09-15T21:46:20.446Z,7.78
2022-09-15T21:48:52.928Z,7.57
2022-09-15T21:51:25.404Z,7.82
2022-09-15T21:53:56.214Z,7.40
2022-09-15T21:56:27.365Z,8.38
2022-09-15T21:58:57.167Z,6.43
2022-09-15T22:01:29.149Z,6.45
2022-09-15T22:04:03.517Z,7.05
2022-09-15T22:06:34.693Z,8.73
2022-09-15T22:09:08.828Z,7.32
2022-09-15T22:11:38.744Z,8.32
2022-09-15T22:14:10.566Z,8.25
2022-09-15T22:16:41.982Z,11.07
2022-09-15T22:19:15.137Z,9.98
2022-09-15T22:21:45.103Z,8.50
2022-09-15T22:24:15.927Z,7.03
2022-09-15T22:26:46.158Z,6.80
2022-09-15T22:29:15.897Z,7.50
2022-09-15T22:31:45.754Z,8.23
2022-09-15T22:34:18.063Z,6.63
2022-09-15T22:36:47.814Z,8.32
2022-09-15T22:39:17.525Z,6.78
2022-09-15T22:41:47.253Z,10.10
2022-09-15T22:44:21.689Z,6.38
2022-09-15T22:49:27.261Z,9.15
2022-09-15T22:51:57.010Z,6.30
2022-09-15T22:54:26.821Z,6.93
2022-09-15T22:56:56.576Z,8.05
2022-09-15T22:59:27.573Z,6.70
2022-09-15T23:01:57.409Z,5.78
2022-09-15T23:04:29.875Z,4.90
2022-09-15T23:06:59.618Z,7.60
2022-09-15T23:09:29.441Z,6.05
2022-09-15T23:11:59.439Z,6.50
2022-09-15T23:14:32.127Z,5.72
2022-09-15T23:17:01.828Z,7.78
2022-09-15T23:19:34.463Z,6.97
2022-09-15T23:22:04.220Z,7.32
2022-09-15T23:24:34.581Z,6.75
2022-09-15T23:27:04.445Z,6.90
2022-09-15T23:29:34.182Z,6.75
2022-09-15T23:32:04.184Z,8.98
2022-09-15T23:34:36.651Z,6.13
2022-09-15T23:37:06.663Z,10.23
2022-09-15T23:39:36.437Z,11.32
2022-09-15T23:42:06.537Z,9.88
2022-09-15T23:44:36.252Z,7.97
2022-09-15T23:47:06.080Z,5.68
2022-09-15T23:49:38.452Z,11.10
2022-09-15T23:52:08.262Z,7.05
2022-09-15T23:54:38.017Z,10.20
2022-09-15T23:57:08.861Z,9.40
2022-09-15T23:59:38.587Z,9.25
